sensor_id;sensor_type;location;lat;lon;timestamp;P1;durP1;ratioP1;P2;durP2;ratioP2
14116;SDS011;7137;51.436;6.544;2022-07-24T00:01:53;6.47;;;5.00;;
14116;SDS011;7137;51.436;6.544;2022-07-24T00:04:56;5.70;;;4.70;;
14116;SDS011;7137;51.436;6.544;2022-07-24T00:07:58;6.90;;;5.27;;
14116;SDS011;7137;51.436;6.544;2022-07-24T00:11:00;7.27;;;5.70;;
14116;SDS011;7137;51.436;6.544;2022-07-24T00:14:02;6.80;;;5.60;;
14116;SDS011;7137;51.436;6.544;2022-07-24T00:17:04;6.27;;;5.30;;
14116;SDS011;7137;51.436;6.544;2022-07-24T00:20:08;6.60;;;5.20;;
14116;SDS011;7137;51.436;6.544;2022-07-24T00:23:10;7.20;;;5.30;;
14116;SDS011;7137;51.436;6.544;2022-07-24T00:26:12;5.23;;;4.67;;
14116;SDS011;7137;51.436;6.544;2022-07-24T00:29:13;5.73;;;4.90;;
14116;SDS011;7137;51.436;6.544;2022-07-24T00:32:15;6.07;;;5.40;;
14116;SDS011;7137;51.436;6.544;2022-07-24T00:35:18;6.70;;;5.03;;
14116;SDS011;7137;51.436;6.544;2022-07-24T00:38:20;5.60;;;4.53;;
14116;SDS011;7137;51.436;6.544;2022-07-24T00:41:21;5.53;;;4.73;;
14116;SDS011;7137;51.436;6.544;2022-07-24T00:44:23;6.83;;;4.87;;
14116;SDS011;7137;51.436;6.544;2022-07-24T00:47:24;6.93;;;5.30;;
14116;SDS011;7137;51.436;6.544;2022-07-24T00:50:27;6.10;;;5.10;;
14116;SDS011;7137;51.436;6.544;2022-07-24T00:53:29;6.73;;;5.43;;
14116;SDS011;7137;51.436;6.544;2022-07-24T00:56:31;7.50;;;5.17;;
14116;SDS011;7137;51.436;6.544;2022-07-24T00:59:32;7.63;;;5.20;;
14116;SDS011;7137;51.436;6.544;2022-07-24T01:02:34;7.47;;;5.30;;
14116;SDS011;7137;51.436;6.544;2022-07-24T01:05:38;6.40;;;5.00;;
14116;SDS011;7137;51.436;6.544;2022-07-24T01:08:39;7.23;;;5.60;;
14116;SDS011;7137;51.436;6.544;2022-07-24T01:11:43;6.70;;;5.43;;
14116;SDS011;7137;51.436;6.544;2022-07-24T01:14:44;6.27;;;5.17;;
14116;SDS011;7137;51.436;6.544;2022-07-24T01:17:46;6.60;;;5.20;;
14116;SDS011;7137;51.436;6.544;2022-07-24T01:20:49;6.60;;;5.10;;
14116;SDS011;7137;51.436;6.544;2022-07-24T01:23:51;7.00;;;5.30;;
14116;SDS011;7137;51.436;6.544;2022-07-24T01:26:53;6.07;;;5.03;;
14116;SDS011;7137;51.436;6.544;2022-07-24T01:29:55;5.77;;;5.03;;
14116;SDS011;7137;51.436;6.544;2022-07-24T01:32:57;5.73;;;4.80;;
14116;SDS011;7137;51.436;6.544;2022-07-24T01:36:00;6.97;;;5.57;;
14116;SDS011;7137;51.436;6.544;2022-07-24T01:39:02;7.80;;;5.67;;
14116;SDS011;7137;51.436;6.544;2022-07-24T01:42:04;8.30;;;5.60;;
14116;SDS011;7137;51.436;6.544;2022-07-24T01:45:06;6.93;;;5.63;;
14116;SDS011;7137;51.436;6.544;2022-07-24T01:48:09;6.60;;;5.73;;
14116;SDS011;7137;51.436;6.544;2022-07-24T01:51:12;6.50;;;5.80;;
14116;SDS011;7137;51.436;6.544;2022-07-24T01:54:14;8.20;;;6.60;;
14116;SDS011;7137;51.436;6.544;2022-07-24T01:57:15;7.50;;;6.00;;
14116;SDS011;7137;51.436;6.544;2022-07-24T02:00:17;7.90;;;6.43;;
14116;SDS011;7137;51.436;6.544;2022-07-24T02:03:19;7.93;;;6.80;;
14116;SDS011;7137;51.436;6.544;2022-07-24T02:06:22;6.87;;;6.17;;
14116;SDS011;7137;51.436;6.544;2022-07-24T02:09:24;7.13;;;6.30;;
14116;SDS011;7137;51.436;6.544;2022-07-24T02:12:25;6.90;;;6.13;;
14116;SDS011;7137;51.436;6.544;2022-07-24T02:15:27;6.70;;;6.00;;
14116;SDS011;7137;51.436;6.544;2022-07-24T02:18:29;7.90;;;6.73;;
14116;SDS011;7137;51.436;6.544;2022-07-24T02:21:31;6.87;;;6.17;;
14116;SDS011;7137;51.436;6.544;2022-07-24T02:24:33;7.77;;;6.70;;
14116;SDS011;7137;51.436;6.544;2022-07-24T02:27:35;7.77;;;6.67;;
14116;SDS011;7137;51.436;6.544;2022-07-24T02:30:37;7.30;;;6.50;;
14116;SDS011;7137;51.436;6.544;2022-07-24T02:33:39;8.30;;;6.33;;
14116;SDS011;7137;51.436;6.544;2022-07-24T02:36:41;7.10;;;6.40;;
14116;SDS011;7137;51.436;6.544;2022-07-24T02:39:43;8.20;;;6.77;;
14116;SDS011;7137;51.436;6.544;2022-07-24T02:42:45;8.77;;;6.70;;
14116;SDS011;7137;51.436;6.544;2022-07-24T02:45:46;7.87;;;6.67;;
14116;SDS011;7137;51.436;6.544;2022-07-24T02:48:48;7.37;;;6.60;;
14116;SDS011;7137;51.436;6.544;2022-07-24T02:51:50;7.90;;;7.10;;
14116;SDS011;7137;51.436;6.544;2022-07-24T02:54:53;7.77;;;6.90;;
14116;SDS011;7137;51.436;6.544;2022-07-24T02:57:55;8.57;;;7.20;;
14116;SDS011;7137;51.436;6.544;2022-07-24T03:00:57;8.33;;;7.30;;
14116;SDS011;7137;51.436;6.544;2022-07-24T03:03:58;8.50;;;7.60;;
14116;SDS011;7137;51.436;6.544;2022-07-24T03:07:01;8.70;;;7.70;;
14116;SDS011;7137;51.436;6.544;2022-07-24T03:10:03;8.63;;;7.73;;
14116;SDS011;7137;51.436;6.544;2022-07-24T03:13:04;8.63;;;7.73;;
14116;SDS011;7137;51.436;6.544;2022-07-24T03:16:06;9.60;;;7.97;;
14116;SDS011;7137;51.436;6.544;2022-07-24T03:19:08;9.67;;;8.67;;
14116;SDS011;7137;51.436;6.544;2022-07-24T03:22:11;8.40;;;7.50;;
14116;SDS011;7137;51.436;6.544;2022-07-24T03:25:13;8.70;;;7.90;;
14116;SDS011;7137;51.436;6.544;2022-07-24T03:28:15;9.10;;;8.20;;
14116;SDS011;7137;51.436;6.544;2022-07-24T03:31:17;8.90;;;8.00;;
14116;SDS011;7137;51.436;6.544;2022-07-24T03:34:18;9.73;;;8.70;;
14116;SDS011;7137;51.436;6.544;2022-07-24T03:37:21;9.70;;;8.77;;
14116;SDS011;7137;51.436;6.544;2022-07-24T03:40:23;9.97;;;8.97;;
14116;SDS011;7137;51.436;6.544;2022-07-24T03:43:24;9.67;;;8.67;;
14116;SDS011;7137;51.436;6.544;2022-07-24T03:46:26;10.17;;;8.60;;
14116;SDS011;7137;51.436;6.544;2022-07-24T03:49:28;10.20;;;9.20;;
14116;SDS011;7137;51.436;6.544;2022-07-24T03:52:31;10.67;;;8.87;;
14116;SDS011;7137;51.436;6.544;2022-07-24T03:55:32;9.37;;;8.20;;
14116;SDS011;7137;51.436;6.544;2022-07-24T03:58:34;9.87;;;8.63;;
14116;SDS011;7137;51.436;6.544;2022-07-24T04:01:36;9.53;;;8.53;;
14116;SDS011;7137;51.436;6.544;2022-07-24T04:04:37;10.37;;;8.93;;
14116;SDS011;7137;51.436;6.544;2022-07-24T04:07:40;9.87;;;8.90;;
14116;SDS011;7137;51.436;6.544;2022-07-24T04:10:42;10.47;;;9.37;;
14116;SDS011;7137;51.436;6.544;2022-07-24T04:13:43;9.60;;;8.53;;
14116;SDS011;7137;51.436;6.544;2022-07-24T04:16:45;11.03;;;9.60;;
14116;SDS011;7137;51.436;6.544;2022-07-24T04:19:47;9.70;;;8.70;;
14116;SDS011;7137;51.436;6.544;2022-07-24T04:22:50;9.40;;;8.50;;
14116;SDS011;7137;51.436;6.544;2022-07-24T04:25:52;10.47;;;9.47;;
14116;SDS011;7137;51.436;6.544;2022-07-24T04:28:53;9.50;;;8.47;;
14116;SDS011;7137;51.436;6.544;2022-07-24T04:31:55;9.83;;;8.83;;
14116;SDS011;7137;51.436;6.544;2022-07-24T04:34:56;10.03;;;9.03;;
14116;SDS011;7137;51.436;6.544;2022-07-24T04:37:59;10.67;;;9.50;;
14116;SDS011;7137;51.436;6.544;2022-07-24T04:41:01;10.07;;;9.07;;
14116;SDS011;7137;51.436;6.544;2022-07-24T04:44:04;10.23;;;9.13;;
14116;SDS011;7137;51.436;6.544;2022-07-24T04:47:06;9.30;;;8.43;;
14116;SDS011;7137;51.436;6.544;2022-07-24T04:50:07;10.60;;;9.60;;
14116;SDS011;7137;51.436;6.544;2022-07-24T04:53:11;10.07;;;9.07;;
14116;SDS011;7137;51.436;6.544;2022-07-24T04:56:12;10.10;;;9.03;;
14116;SDS011;7137;51.436;6.544;2022-07-24T04:59:14;10.37;;;9.27;;
14116;SDS011;7137;51.436;6.544;2022-07-24T05:02:16;10.07;;;9.07;;
14116;SDS011;7137;51.436;6.544;2022-07-24T05:05:17;11.97;;;9.53;;
14116;SDS011;7137;51.436;6.544;2022-07-24T05:08:20;10.93;;;9.40;;
14116;SDS011;7137;51.436;6.544;2022-07-24T05:11:22;10.40;;;9.30;;
14116;SDS011;7137;51.436;6.544;2022-07-24T05:14:24;10.13;;;9.03;;
14116;SDS011;7137;51.436;6.544;2022-07-24T05:17:25;9.60;;;8.60;;
14116;SDS011;7137;51.436;6.544;2022-07-24T05:20:27;9.70;;;8.70;;
14116;SDS011;7137;51.436;6.544;2022-07-24T05:23:30;10.50;;;8.20;;
14116;SDS011;7137;51.436;6.544;2022-07-24T05:26:32;9.23;;;8.20;;
14116;SDS011;7137;51.436;6.544;2022-07-24T05:29:34;10.13;;;9.13;;
14116;SDS011;7137;51.436;6.544;2022-07-24T05:32:35;9.60;;;8.60;;
14116;SDS011;7137;51.436;6.544;2022-07-24T05:35:37;10.23;;;8.67;;
14116;SDS011;7137;51.436;6.544;2022-07-24T05:38:40;9.30;;;8.30;;
14116;SDS011;7137;51.436;6.544;2022-07-24T05:41:42;9.30;;;8.27;;
14116;SDS011;7137;51.436;6.544;2022-07-24T05:44:44;9.60;;;7.97;;
14116;SDS011;7137;51.436;6.544;2022-07-24T05:47:46;10.83;;;8.40;;
14116;SDS011;7137;51.436;6.544;2022-07-24T05:50:47;8.87;;;7.53;;
14116;SDS011;7137;51.436;6.544;2022-07-24T05:53:50;9.43;;;7.90;;
14116;SDS011;7137;51.436;6.544;2022-07-24T05:56:52;9.03;;;7.73;;
14116;SDS011;7137;51.436;6.544;2022-07-24T05:59:54;8.47;;;6.33;;
14116;SDS011;7137;51.436;6.544;2022-07-24T06:02:55;8.10;;;6.40;;
14116;SDS011;7137;51.436;6.544;2022-07-24T06:05:57;7.50;;;6.23;;
14116;SDS011;7137;51.436;6.544;2022-07-24T06:09:00;7.47;;;6.20;;
14116;SDS011;7137;51.436;6.544;2022-07-24T06:12:02;7.30;;;6.13;;
14116;SDS011;7137;51.436;6.544;2022-07-24T06:15:04;7.40;;;5.87;;
14116;SDS011;7137;51.436;6.544;2022-07-24T06:18:06;6.93;;;5.83;;
14116;SDS011;7137;51.436;6.544;2022-07-24T06:21:08;6.77;;;5.80;;
14116;SDS011;7137;51.436;6.544;2022-07-24T06:24:12;8.20;;;6.07;;
14116;SDS011;7137;51.436;6.544;2022-07-24T06:27:13;8.10;;;6.43;;
14116;SDS011;7137;51.436;6.544;2022-07-24T06:30:15;8.70;;;6.87;;
14116;SDS011;7137;51.436;6.544;2022-07-24T06:33:18;7.77;;;6.93;;
14116;SDS011;7137;51.436;6.544;2022-07-24T06:36:20;8.00;;;7.10;;
14116;SDS011;7137;51.436;6.544;2022-07-24T06:39:23;8.07;;;6.50;;
14116;SDS011;7137;51.436;6.544;2022-07-24T06:42:24;8.50;;;7.60;;
14116;SDS011;7137;51.436;6.544;2022-07-24T06:45:27;12.07;;;8.17;;
14116;SDS011;7137;51.436;6.544;2022-07-24T06:48:31;9.00;;;7.33;;
14116;SDS011;7137;51.436;6.544;2022-07-24T06:51:33;9.60;;;7.33;;
14116;SDS011;7137;51.436;6.544;2022-07-24T06:54:35;9.03;;;7.53;;
14116;SDS011;7137;51.436;6.544;2022-07-24T06:57:37;9.00;;;7.83;;
14116;SDS011;7137;51.436;6.544;2022-07-24T07:00:39;10.27;;;6.87;;
14116;SDS011;7137;51.436;6.544;2022-07-24T07:03:41;10.73;;;8.37;;
14116;SDS011;7137;51.436;6.544;2022-07-24T07:06:43;9.23;;;7.97;;
14116;SDS011;7137;51.436;6.544;2022-07-24T07:09:45;11.07;;;8.87;;
14116;SDS011;7137;51.436;6.544;2022-07-24T07:12:47;12.43;;;11.10;;
14116;SDS011;7137;51.436;6.544;2022-07-24T07:15:49;12.17;;;9.63;;
14116;SDS011;7137;51.436;6.544;2022-07-24T07:18:50;12.77;;;10.10;;
14116;SDS011;7137;51.436;6.544;2022-07-24T07:21:52;11.10;;;9.30;;
14116;SDS011;7137;51.436;6.544;2022-07-24T07:24:55;11.27;;;10.17;;
14116;SDS011;7137;51.436;6.544;2022-07-24T07:27:56;11.00;;;9.90;;
14116;SDS011;7137;51.436;6.544;2022-07-24T07:30:58;11.90;;;10.20;;
14116;SDS011;7137;51.436;6.544;2022-07-24T07:33:59;11.07;;;9.90;;
14116;SDS011;7137;51.436;6.544;2022-07-24T07:37:01;12.97;;;11.60;;
14116;SDS011;7137;51.436;6.544;2022-07-24T07:40:04;11.27;;;9.25;;
14116;SDS011;7137;51.436;6.544;2022-07-24T07:43:07;12.57;;;11.17;;
14116;SDS011;7137;51.436;6.544;2022-07-24T07:46:08;11.13;;;9.43;;
14116;SDS011;7137;51.436;6.544;2022-07-24T07:49:10;11.50;;;9.87;;
14116;SDS011;7137;51.436;6.544;2022-07-24T07:52:11;14.43;;;12.20;;
14116;SDS011;7137;51.436;6.544;2022-07-24T07:55:14;10.30;;;9.23;;
14116;SDS011;7137;51.436;6.544;2022-07-24T07:58:16;12.43;;;10.70;;
14116;SDS011;7137;51.436;6.544;2022-07-24T08:01:17;11.30;;;10.00;;
14116;SDS011;7137;51.436;6.544;2022-07-24T08:04:19;12.87;;;11.27;;
14116;SDS011;7137;51.436;6.544;2022-07-24T08:07:21;11.23;;;9.33;;
14116;SDS011;7137;51.436;6.544;2022-07-24T08:10:24;13.80;;;12.40;;
14116;SDS011;7137;51.436;6.544;2022-07-24T08:13:25;11.30;;;9.87;;
14116;SDS011;7137;51.436;6.544;2022-07-24T08:16:27;12.93;;;11.53;;
14116;SDS011;7137;51.436;6.544;2022-07-24T08:19:29;12.87;;;11.10;;
14116;SDS011;7137;51.436;6.544;2022-07-24T08:22:30;13.23;;;11.47;;
14116;SDS011;7137;51.436;6.544;2022-07-24T08:25:34;13.90;;;12.30;;
14116;SDS011;7137;51.436;6.544;2022-07-24T08:28:36;12.40;;;10.73;;
14116;SDS011;7137;51.436;6.544;2022-07-24T08:31:37;12.90;;;10.67;;
14116;SDS011;7137;51.436;6.544;2022-07-24T08:34:39;14.97;;;12.40;;
14116;SDS011;7137;51.436;6.544;2022-07-24T08:37:41;11.83;;;10.20;;
14116;SDS011;7137;51.436;6.544;2022-07-24T08:40:45;12.98;;;11.35;;
14116;SDS011;7137;51.436;6.544;2022-07-24T08:43:48;9.20;;;7.43;;
14116;SDS011;7137;51.436;6.544;2022-07-24T08:46:50;11.50;;;9.83;;
14116;SDS011;7137;51.436;6.544;2022-07-24T08:49:55;12.37;;;10.80;;
14116;SDS011;7137;51.436;6.544;2022-07-24T08:52:59;11.67;;;9.83;;
14116;SDS011;7137;51.436;6.544;2022-07-24T08:56:03;10.37;;;9.20;;
14116;SDS011;7137;51.436;6.544;2022-07-24T08:59:14;12.30;;;11.07;;
14116;SDS011;7137;51.436;6.544;2022-07-24T09:02:18;10.70;;;9.60;;
14116;SDS011;7137;51.436;6.544;2022-07-24T09:05:21;11.73;;;10.47;;
14116;SDS011;7137;51.436;6.544;2022-07-24T09:08:22;9.60;;;8.03;;
14116;SDS011;7137;51.436;6.544;2022-07-24T09:11:25;8.60;;;6.57;;
14116;SDS011;7137;51.436;6.544;2022-07-24T09:14:29;8.40;;;6.40;;
14116;SDS011;7137;51.436;6.544;2022-07-24T09:17:32;9.43;;;8.50;;
14116;SDS011;7137;51.436;6.544;2022-07-24T09:20:37;11.00;;;9.23;;
14116;SDS011;7137;51.436;6.544;2022-07-24T09:23:39;9.20;;;6.93;;
14116;SDS011;7137;51.436;6.544;2022-07-24T09:26:44;10.50;;;8.73;;
14116;SDS011;7137;51.436;6.544;2022-07-24T09:29:47;10.10;;;8.07;;
14116;SDS011;7137;51.436;6.544;2022-07-24T09:32:51;8.67;;;7.03;;
14116;SDS011;7137;51.436;6.544;2022-07-24T09:35:53;9.13;;;6.37;;
14116;SDS011;7137;51.436;6.544;2022-07-24T09:38:56;9.93;;;6.20;;
14116;SDS011;7137;51.436;6.544;2022-07-24T09:42:01;10.32;;;8.52;;
14116;SDS011;7137;51.436;6.544;2022-07-24T09:45:06;8.60;;;6.90;;
14116;SDS011;7137;51.436;6.544;2022-07-24T09:48:11;7.87;;;6.13;;
14116;SDS011;7137;51.436;6.544;2022-07-24T09:51:13;8.00;;;5.85;;
14116;SDS011;7137;51.436;6.544;2022-07-24T09:54:26;9.83;;;5.57;;
14116;SDS011;7137;51.436;6.544;2022-07-24T09:57:32;10.47;;;6.37;;
14116;SDS011;7137;51.436;6.544;2022-07-24T10:04:32;6.87;;;4.80;;
14116;SDS011;7137;51.436;6.544;2022-07-24T10:07:36;8.37;;;6.63;;
14116;SDS011;7137;51.436;6.544;2022-07-24T10:10:38;7.70;;;5.47;;
14116;SDS011;7137;51.436;6.544;2022-07-24T10:13:44;9.57;;;6.68;;
14116;SDS011;7137;51.436;6.544;2022-07-24T10:16:46;8.30;;;5.77;;
14116;SDS011;7137;51.436;6.544;2022-07-24T10:20:03;8.50;;;6.10;;
14116;SDS011;7137;51.436;6.544;2022-07-24T10:23:05;7.30;;;5.10;;
14116;SDS011;7137;51.436;6.544;2022-07-24T10:26:08;7.83;;;5.97;;
14116;SDS011;7137;51.436;6.544;2022-07-24T10:29:19;8.20;;;5.57;;
14116;SDS011;7137;51.436;6.544;2022-07-24T10:32:22;8.20;;;5.57;;
14116;SDS011;7137;51.436;6.544;2022-07-24T10:35:24;8.73;;;5.70;;
14116;SDS011;7137;51.436;6.544;2022-07-24T10:38:32;7.33;;;5.47;;
14116;SDS011;7137;51.436;6.544;2022-07-24T10:41:37;9.50;;;6.30;;
14116;SDS011;7137;51.436;6.544;2022-07-24T10:44:40;7.27;;;5.40;;
14116;SDS011;7137;51.436;6.544;2022-07-24T10:47:44;10.60;;;5.70;;
14116;SDS011;7137;51.436;6.544;2022-07-24T10:54:17;8.03;;;5.30;;
14116;SDS011;7137;51.436;6.544;2022-07-24T10:57:19;7.80;;;6.03;;
14116;SDS011;7137;51.436;6.544;2022-07-24T11:00:49;7.13;;;6.10;;
14116;SDS011;7137;51.436;6.544;2022-07-24T11:03:51;8.17;;;5.53;;
14116;SDS011;7137;51.436;6.544;2022-07-24T11:06:54;7.33;;;5.70;;
14116;SDS011;7137;51.436;6.544;2022-07-24T11:09:58;9.43;;;5.77;;
14116;SDS011;7137;51.436;6.544;2022-07-24T11:13:02;7.27;;;5.20;;
14116;SDS011;7137;51.436;6.544;2022-07-24T11:16:30;6.87;;;5.20;;
14116;SDS011;7137;51.436;6.544;2022-07-24T11:19:33;9.07;;;6.17;;
14116;SDS011;7137;51.436;6.544;2022-07-24T11:22:38;7.20;;;5.43;;
14116;SDS011;7137;51.436;6.544;2022-07-24T11:25:42;7.20;;;5.40;;
14116;SDS011;7137;51.436;6.544;2022-07-24T11:32:15;7.50;;;5.50;;
14116;SDS011;7137;51.436;6.544;2022-07-24T11:35:26;7.27;;;5.40;;
14116;SDS011;7137;51.436;6.544;2022-07-24T11:38:28;6.17;;;4.90;;
14116;SDS011;7137;51.436;6.544;2022-07-24T11:41:42;6.40;;;5.30;;
14116;SDS011;7137;51.436;6.544;2022-07-24T11:44:47;7.20;;;5.27;;
14116;SDS011;7137;51.436;6.544;2022-07-24T11:47:49;7.83;;;4.63;;
14116;SDS011;7137;51.436;6.544;2022-07-24T11:51:02;6.40;;;4.50;;
14116;SDS011;7137;51.436;6.544;2022-07-24T11:54:04;7.17;;;5.00;;
14116;SDS011;7137;51.436;6.544;2022-07-24T11:57:14;5.83;;;4.30;;
14116;SDS011;7137;51.436;6.544;2022-07-24T12:00:19;5.67;;;4.00;;
14116;SDS011;7137;51.436;6.544;2022-07-24T12:03:23;5.03;;;4.07;;
14116;SDS011;7137;51.436;6.544;2022-07-24T12:06:25;6.43;;;4.20;;
14116;SDS011;7137;51.436;6.544;2022-07-24T12:09:28;5.13;;;4.10;;
14116;SDS011;7137;51.436;6.544;2022-07-24T12:12:30;5.60;;;3.87;;
14116;SDS011;7137;51.436;6.544;2022-07-24T12:15:36;6.10;;;4.13;;
14116;SDS011;7137;51.436;6.544;2022-07-24T12:18:39;5.10;;;3.93;;
14116;SDS011;7137;51.436;6.544;2022-07-24T12:21:41;5.27;;;3.70;;
14116;SDS011;7137;51.436;6.544;2022-07-24T12:24:43;5.93;;;4.10;;
14116;SDS011;7137;51.436;6.544;2022-07-24T12:27:45;5.33;;;3.70;;
14116;SDS011;7137;51.436;6.544;2022-07-24T12:30:50;6.50;;;4.00;;
14116;SDS011;7137;51.436;6.544;2022-07-24T12:33:54;6.53;;;4.10;;
14116;SDS011;7137;51.436;6.544;2022-07-24T12:36:56;6.30;;;4.07;;
14116;SDS011;7137;51.436;6.544;2022-07-24T12:39:57;5.43;;;3.90;;
14116;SDS011;7137;51.436;6.544;2022-07-24T12:43:00;5.87;;;4.10;;
14116;SDS011;7137;51.436;6.544;2022-07-24T12:46:05;5.63;;;4.43;;
14116;SDS011;7137;51.436;6.544;2022-07-24T12:49:09;5.73;;;4.30;;
14116;SDS011;7137;51.436;6.544;2022-07-24T12:52:18;5.40;;;3.90;;
14116;SDS011;7137;51.436;6.544;2022-07-24T12:55:21;5.23;;;4.00;;
14116;SDS011;7137;51.436;6.544;2022-07-24T12:58:23;4.63;;;4.03;;
14116;SDS011;7137;51.436;6.544;2022-07-24T13:01:27;5.67;;;4.00;;
14116;SDS011;7137;51.436;6.544;2022-07-24T13:04:44;5.87;;;4.13;;
14116;SDS011;7137;51.436;6.544;2022-07-24T13:07:51;5.83;;;4.00;;
14116;SDS011;7137;51.436;6.544;2022-07-24T13:10:53;5.27;;;3.80;;
14116;SDS011;7137;51.436;6.544;2022-07-24T13:13:55;6.37;;;4.07;;
14116;SDS011;7137;51.436;6.544;2022-07-24T13:17:02;5.03;;;3.90;;
14116;SDS011;7137;51.436;6.544;2022-07-24T13:20:05;6.30;;;3.93;;
14116;SDS011;7137;51.436;6.544;2022-07-24T13:23:07;5.50;;;3.70;;
14116;SDS011;7137;51.436;6.544;2022-07-24T13:26:09;4.27;;;3.30;;
14116;SDS011;7137;51.436;6.544;2022-07-24T13:29:11;5.77;;;4.17;;
14116;SDS011;7137;51.436;6.544;2022-07-24T13:32:16;5.70;;;3.90;;
14116;SDS011;7137;51.436;6.544;2022-07-24T13:35:17;5.83;;;3.77;;
14116;SDS011;7137;51.436;6.544;2022-07-24T13:38:19;6.50;;;3.57;;
14116;SDS011;7137;51.436;6.544;2022-07-24T13:41:20;4.90;;;3.73;;
14116;SDS011;7137;51.436;6.544;2022-07-24T13:44:22;5.60;;;3.90;;
14116;SDS011;7137;51.436;6.544;2022-07-24T13:47:25;5.90;;;3.60;;
14116;SDS011;7137;51.436;6.544;2022-07-24T13:50:27;6.10;;;4.00;;
14116;SDS011;7137;51.436;6.544;2022-07-24T13:53:28;7.23;;;3.90;;
14116;SDS011;7137;51.436;6.544;2022-07-24T13:56:30;4.70;;;3.70;;
14116;SDS011;7137;51.436;6.544;2022-07-24T13:59:32;4.67;;;3.57;;
14116;SDS011;7137;51.436;6.544;2022-07-24T14:02:35;5.70;;;3.63;;
14116;SDS011;7137;51.436;6.544;2022-07-24T14:05:36;5.67;;;4.20;;
14116;SDS011;7137;51.436;6.544;2022-07-24T14:08:38;6.90;;;3.80;;
14116;SDS011;7137;51.436;6.544;2022-07-24T14:11:41;5.17;;;3.83;;
14116;SDS011;7137;51.436;6.544;2022-07-24T14:14:43;4.83;;;3.57;;
14116;SDS011;7137;51.436;6.544;2022-07-24T14:17:46;5.17;;;3.70;;
14116;SDS011;7137;51.436;6.544;2022-07-24T14:20:47;4.77;;;3.70;;
14116;SDS011;7137;51.436;6.544;2022-07-24T14:23:49;5.43;;;3.83;;
14116;SDS011;7137;51.436;6.544;2022-07-24T14:26:50;5.80;;;4.00;;
14116;SDS011;7137;51.436;6.544;2022-07-24T14:29:52;4.93;;;3.80;;
14116;SDS011;7137;51.436;6.544;2022-07-24T14:32:55;6.07;;;3.50;;
14116;SDS011;7137;51.436;6.544;2022-07-24T14:35:56;5.47;;;4.07;;
14116;SDS011;7137;51.436;6.544;2022-07-24T14:38:58;5.63;;;3.80;;
14116;SDS011;7137;51.436;6.544;2022-07-24T14:41:59;4.50;;;3.50;;
14116;SDS011;7137;51.436;6.544;2022-07-24T14:45:01;4.80;;;3.10;;
14116;SDS011;7137;51.436;6.544;2022-07-24T14:48:05;4.90;;;3.87;;
14116;SDS011;7137;51.436;6.544;2022-07-24T14:51:07;5.77;;;3.77;;
14116;SDS011;7137;51.436;6.544;2022-07-24T14:54:08;5.33;;;3.90;;
14116;SDS011;7137;51.436;6.544;2022-07-24T14:57:10;4.80;;;3.67;;
14116;SDS011;7137;51.436;6.544;2022-07-24T15:00:12;5.17;;;3.63;;
14116;SDS011;7137;51.436;6.544;2022-07-24T15:03:16;6.30;;;3.60;;
14116;SDS011;7137;51.436;6.544;2022-07-24T15:06:17;4.93;;;3.80;;
14116;SDS011;7137;51.436;6.544;2022-07-24T15:09:19;5.83;;;3.90;;
14116;SDS011;7137;51.436;6.544;2022-07-24T15:12:20;4.97;;;3.63;;
14116;SDS011;7137;51.436;6.544;2022-07-24T15:15:22;4.97;;;3.80;;
14116;SDS011;7137;51.436;6.544;2022-07-24T15:18:25;4.83;;;3.37;;
14116;SDS011;7137;51.436;6.544;2022-07-24T15:21:27;4.53;;;3.43;;
14116;SDS011;7137;51.436;6.544;2022-07-24T15:24:28;4.60;;;3.53;;
14116;SDS011;7137;51.436;6.544;2022-07-24T15:27:30;5.53;;;3.50;;
14116;SDS011;7137;51.436;6.544;2022-07-24T15:30:31;6.20;;;4.47;;
14116;SDS011;7137;51.436;6.544;2022-07-24T15:33:34;4.83;;;3.80;;
14116;SDS011;7137;51.436;6.544;2022-07-24T15:36:36;6.00;;;3.83;;
14116;SDS011;7137;51.436;6.544;2022-07-24T15:39:38;5.30;;;3.77;;
14116;SDS011;7137;51.436;6.544;2022-07-24T15:42:39;6.10;;;3.80;;
14116;SDS011;7137;51.436;6.544;2022-07-24T15:45:41;4.63;;;3.70;;
14116;SDS011;7137;51.436;6.544;2022-07-24T15:48:44;6.10;;;3.93;;
14116;SDS011;7137;51.436;6.544;2022-07-24T15:51:45;5.57;;;3.80;;
14116;SDS011;7137;51.436;6.544;2022-07-24T15:54:48;6.03;;;4.50;;
14116;SDS011;7137;51.436;6.544;2022-07-24T15:57:49;4.30;;;3.50;;
14116;SDS011;7137;51.436;6.544;2022-07-24T16:00:51;5.63;;;4.10;;
14116;SDS011;7137;51.436;6.544;2022-07-24T16:03:54;4.50;;;3.60;;
14116;SDS011;7137;51.436;6.544;2022-07-24T16:06:55;4.87;;;3.93;;
14116;SDS011;7137;51.436;6.544;2022-07-24T16:09:57;4.73;;;3.67;;
14116;SDS011;7137;51.436;6.544;2022-07-24T16:12:59;5.38;;;3.85;;
14116;SDS011;7137;51.436;6.544;2022-07-24T16:16:00;4.53;;;3.73;;
14116;SDS011;7137;51.436;6.544;2022-07-24T16:19:03;5.13;;;4.10;;
14116;SDS011;7137;51.436;6.544;2022-07-24T16:22:06;5.68;;;3.70;;
14116;SDS011;7137;51.436;6.544;2022-07-24T16:25:08;5.28;;;4.18;;
14116;SDS011;7137;51.436;6.544;2022-07-24T16:28:10;4.57;;;4.00;;
14116;SDS011;7137;51.436;6.544;2022-07-24T16:31:12;5.07;;;3.70;;
14116;SDS011;7137;51.436;6.544;2022-07-24T16:34:15;5.03;;;3.90;;
14116;SDS011;7137;51.436;6.544;2022-07-24T16:37:16;5.82;;;4.07;;
14116;SDS011;7137;51.436;6.544;2022-07-24T16:40:18;4.43;;;3.40;;
14116;SDS011;7137;51.436;6.544;2022-07-24T16:43:20;5.43;;;3.90;;
14116;SDS011;7137;51.436;6.544;2022-07-24T16:46:22;4.37;;;3.57;;
14116;SDS011;7137;51.436;6.544;2022-07-24T16:49:25;5.10;;;4.07;;
14116;SDS011;7137;51.436;6.544;2022-07-24T16:52:27;4.38;;;3.33;;
14116;SDS011;7137;51.436;6.544;2022-07-24T16:55:28;5.07;;;3.97;;
14116;SDS011;7137;51.436;6.544;2022-07-24T16:58:30;6.18;;;4.15;;
14116;SDS011;7137;51.436;6.544;2022-07-24T17:01:31;4.35;;;3.53;;
14116;SDS011;7137;51.436;6.544;2022-07-24T17:04:35;4.28;;;3.63;;
14116;SDS011;7137;51.436;6.544;2022-07-24T17:07:37;4.65;;;3.80;;
14116;SDS011;7137;51.436;6.544;2022-07-24T17:10:39;5.32;;;4.25;;
14116;SDS011;7137;51.436;6.544;2022-07-24T17:13:41;5.20;;;3.80;;
14116;SDS011;7137;51.436;6.544;2022-07-24T17:16:43;5.17;;;3.70;;
14116;SDS011;7137;51.436;6.544;2022-07-24T17:19:46;4.23;;;3.60;;
14116;SDS011;7137;51.436;6.544;2022-07-24T17:22:48;5.90;;;4.47;;
14116;SDS011;7137;51.436;6.544;2022-07-24T17:25:49;4.60;;;4.03;;
14116;SDS011;7137;51.436;6.544;2022-07-24T17:28:51;5.50;;;4.20;;
14116;SDS011;7137;51.436;6.544;2022-07-24T17:31:52;4.97;;;3.90;;
14116;SDS011;7137;51.436;6.544;2022-07-24T17:34:55;4.60;;;3.97;;
14116;SDS011;7137;51.436;6.544;2022-07-24T17:37:57;6.43;;;3.90;;
14116;SDS011;7137;51.436;6.544;2022-07-24T17:40:59;4.90;;;4.07;;
14116;SDS011;7137;51.436;6.544;2022-07-24T17:44:00;4.90;;;4.00;;
14116;SDS011;7137;51.436;6.544;2022-07-24T17:47:02;4.90;;;4.37;;
14116;SDS011;7137;51.436;6.544;2022-07-24T17:50:06;6.23;;;3.67;;
14116;SDS011;7137;51.436;6.544;2022-07-24T17:53:09;5.40;;;3.90;;
14116;SDS011;7137;51.436;6.544;2022-07-24T17:56:11;5.00;;;3.83;;
14116;SDS011;7137;51.436;6.544;2022-07-24T17:59:13;5.33;;;4.10;;
14116;SDS011;7137;51.436;6.544;2022-07-24T18:02:15;4.90;;;4.00;;
14116;SDS011;7137;51.436;6.544;2022-07-24T18:05:17;5.70;;;4.30;;
14116;SDS011;7137;51.436;6.544;2022-07-24T18:08:19;5.80;;;4.00;;
14116;SDS011;7137;51.436;6.544;2022-07-24T18:11:21;4.60;;;3.73;;
14116;SDS011;7137;51.436;6.544;2022-07-24T18:14:23;5.07;;;3.80;;
14116;SDS011;7137;51.436;6.544;2022-07-24T18:17:25;4.37;;;3.70;;
14116;SDS011;7137;51.436;6.544;2022-07-24T18:20:28;5.30;;;3.73;;
14116;SDS011;7137;51.436;6.544;2022-07-24T18:23:30;4.63;;;3.87;;
14116;SDS011;7137;51.436;6.544;2022-07-24T18:26:31;6.27;;;4.20;;
14116;SDS011;7137;51.436;6.544;2022-07-24T18:29:33;4.60;;;3.87;;
14116;SDS011;7137;51.436;6.544;2022-07-24T18:32:34;4.33;;;3.50;;
14116;SDS011;7137;51.436;6.544;2022-07-24T18:35:37;4.70;;;3.53;;
14116;SDS011;7137;51.436;6.544;2022-07-24T18:38:39;4.87;;;3.47;;
14116;SDS011;7137;51.436;6.544;2022-07-24T18:41:41;4.90;;;3.80;;
14116;SDS011;7137;51.436;6.544;2022-07-24T18:44:42;5.03;;;4.03;;